createdAt,value
2019-02-17T00:03:43.667Z,13.60
2019-02-17T00:08:45.893Z,14.57
2019-02-17T00:13:48.924Z,13.90
2019-02-17T00:18:51.196Z,13.80
2019-02-17T00:23:54.151Z,13.80
2019-02-17T00:28:59.522Z,14.20
2019-02-17T00:34:01.893Z,14.53
2019-02-17T00:39:06.033Z,14.47
2019-02-17T00:44:09.223Z,15.77
2019-02-17T00:49:12.314Z,14.83
2019-02-17T00:54:15.691Z,14.50
2019-02-17T00:59:18.494Z,13.47
2019-02-17T01:04:20.656Z,13.87
2019-02-17T01:09:23.135Z,13.70
2019-02-17T01:14:25.671Z,14.20
2019-02-17T01:19:27.879Z,13.87
2019-02-17T01:24:31.007Z,14.13
2019-02-17T01:29:34.175Z,14.70
2019-02-17T01:34:36.438Z,13.23
2019-02-17T01:39:39.031Z,14.17
2019-02-17T01:44:42.033Z,15.67
2019-02-17T01:49:44.565Z,14.57
2019-02-17T01:54:47.092Z,15.40
2019-02-17T01:59:49.564Z,13.83
2019-02-17T02:04:52.153Z,14.40
2019-02-17T02:09:54.638Z,14.47
2019-02-17T02:14:57.449Z,14.00
2019-02-17T02:19:59.919Z,13.90
2019-02-17T02:25:02.363Z,14.10
2019-02-17T02:30:07.285Z,13.63
2019-02-17T02:35:09.911Z,14.33
2019-02-17T02:40:12.129Z,15.30
2019-02-17T02:45:14.968Z,14.10
2019-02-17T02:50:18.069Z,15.43
2019-02-17T02:55:20.555Z,15.03
2019-02-17T03:00:23.569Z,15.10
2019-02-17T03:05:26.668Z,14.60
2019-02-17T03:10:29.773Z,15.43
2019-02-17T03:15:31.969Z,15.80
2019-02-17T03:20:35.056Z,14.33
2019-02-17T03:25:37.262Z,14.47
2019-02-17T03:30:39.521Z,15.00
2019-02-17T03:35:42.445Z,15.23
2019-02-17T03:40:45.446Z,15.27
2019-02-17T03:45:48.011Z,14.83
2019-02-17T03:50:51.141Z,14.27
2019-02-17T03:55:54.214Z,14.10
2019-02-17T04:00:57.062Z,14.97
2019-02-17T04:05:59.487Z,15.87
2019-02-17T04:11:01.743Z,15.03
2019-02-17T04:16:04.288Z,15.00
2019-02-17T04:21:07.700Z,14.57
2019-02-17T04:26:10.135Z,15.37
2019-02-17T04:31:13.040Z,15.80
2019-02-17T04:36:15.386Z,15.30
2019-02-17T04:41:17.600Z,14.37
2019-02-17T04:46:20.755Z,13.83
2019-02-17T04:51:23.303Z,14.23
2019-02-17T04:56:26.516Z,14.83
2019-02-17T05:01:28.869Z,13.97
2019-02-17T05:06:32.928Z,13.00
2019-02-17T05:11:35.129Z,14.83
2019-02-17T05:16:38.202Z,13.80
2019-02-17T05:21:40.925Z,14.70
2019-02-17T05:26:44.379Z,14.10
2019-02-17T05:31:46.589Z,14.63
2019-02-17T05:36:49.138Z,14.03
2019-02-17T05:41:51.624Z,14.53
2019-02-17T05:46:54.031Z,15.07
2019-02-17T05:51:56.177Z,13.80
2019-02-17T05:56:58.956Z,13.90
2019-02-17T06:02:01.387Z,14.33
2019-02-17T06:07:03.589Z,14.87
2019-02-17T06:12:05.800Z,14.03
2019-02-17T06:17:08.031Z,14.37
2019-02-17T06:22:10.354Z,14.13
2019-02-17T06:27:12.634Z,13.33
2019-02-17T06:32:14.797Z,13.40
2019-02-17T06:37:16.988Z,13.17
2019-02-17T06:42:22.443Z,14.13
2019-02-17T06:47:29.431Z,13.53
2019-02-17T06:52:31.618Z,14.20
2019-02-17T06:57:37.486Z,14.03
2019-02-17T07:02:39.755Z,14.17
2019-02-17T07:07:42.071Z,23.27
2019-02-17T07:12:44.897Z,18.97
2019-02-17T07:17:47.856Z,16.37
2019-02-17T07:22:50.090Z,16.90
2019-02-17T07:27:52.497Z,16.70
2019-02-17T07:32:54.897Z,17.03
2019-02-17T07:37:58.136Z,15.90
2019-02-17T07:43:01.243Z,14.97
2019-02-17T07:48:03.636Z,15.93
2019-02-17T07:53:06.399Z,14.97
2019-02-17T07:58:09.748Z,16.03
2019-02-17T08:03:12.282Z,15.83
2019-02-17T08:08:14.574Z,14.10
2019-02-17T08:13:23.795Z,14.20
2019-02-17T08:18:26.645Z,14.10
2019-02-17T08:23:29.602Z,12.93
2019-02-17T08:28:31.970Z,13.90
2019-02-17T08:33:34.489Z,13.80
2019-02-17T08:38:37.114Z,14.00
2019-02-17T08:43:39.504Z,13.57
2019-02-17T08:48:43.584Z,14.37
2019-02-17T08:53:46.569Z,13.57
2019-02-17T08:58:49.568Z,14.43
2019-02-17T09:03:52.232Z,14.17
2019-02-17T09:08:57.657Z,14.37
2019-02-17T09:14:00.707Z,15.07
2019-02-17T09:19:04.073Z,14.60
2019-02-17T09:24:07.290Z,15.13
2019-02-17T09:29:09.611Z,15.03
2019-02-17T09:34:12.443Z,16.87
2019-02-17T09:39:14.803Z,17.10
2019-02-17T09:44:17.202Z,17.40
2019-02-17T09:49:20.121Z,19.40
2019-02-17T09:54:23.027Z,18.40
2019-02-17T09:59:25.341Z,18.07
2019-02-17T10:04:27.702Z,19.37
2019-02-17T10:09:29.986Z,20.83
2019-02-17T10:14:32.542Z,19.87
2019-02-17T10:19:35.363Z,20.90
2019-02-17T10:24:38.753Z,32.63
2019-02-17T10:29:41.243Z,22.03
2019-02-17T10:34:43.767Z,23.20
2019-02-17T10:39:46.228Z,23.07
2019-02-17T10:44:50.033Z,23.90
2019-02-17T10:49:52.319Z,23.47
2019-02-17T10:54:55.192Z,21.60
2019-02-17T11:00:00.932Z,22.87
2019-02-17T11:05:04.063Z,22.53
2019-02-17T11:10:08.134Z,22.27
2019-02-17T11:15:14.210Z,22.73
2019-02-17T11:57:30.320Z,22.87
2019-02-17T19:08:50.553Z,21.43
2019-02-17T19:13:52.906Z,21.33
2019-02-17T19:18:55.212Z,22.00
2019-02-17T19:23:57.525Z,23.83
2019-02-17T19:29:00.536Z,22.57
2019-02-17T19:34:03.100Z,23.10
2019-02-17T19:39:05.719Z,23.47
2019-02-17T19:44:09.034Z,24.07
2019-02-17T19:49:12.135Z,22.07
2019-02-17T19:54:16.152Z,23.27
2019-02-17T19:59:18.435Z,24.27
2019-02-17T20:04:33.222Z,25.20
2019-02-17T20:09:35.450Z,26.40
2019-02-17T20:14:38.521Z,27.03
2019-02-17T20:19:41.722Z,27.93
2019-02-17T20:24:44.924Z,29.43
2019-02-17T20:29:47.709Z,28.17
2019-02-17T20:34:50.013Z,27.93
2019-02-17T20:39:53.326Z,28.50
2019-02-17T20:44:56.003Z,29.53
2019-02-17T20:49:58.947Z,29.90
2019-02-17T20:55:01.230Z,30.10
2019-02-17T21:00:04.064Z,29.17
2019-02-17T21:05:07.406Z,29.33
2019-02-17T21:10:09.940Z,29.40
2019-02-17T21:15:13.415Z,27.73
2019-02-17T21:20:17.077Z,27.73
2019-02-17T21:25:19.337Z,27.40
2019-02-17T21:30:21.869Z,26.50
2019-02-17T21:35:24.361Z,26.10
2019-02-17T21:40:27.140Z,28.13
2019-02-17T21:45:29.419Z,28.30
2019-02-17T21:50:32.807Z,29.40
2019-02-17T21:55:36.043Z,31.27
2019-02-17T22:00:38.340Z,30.90
2019-02-17T22:05:41.305Z,30.27
2019-02-17T22:10:43.552Z,31.90
2019-02-17T22:15:45.804Z,30.03
2019-02-17T22:20:48.601Z,29.83
2019-02-17T22:25:51.855Z,29.03
2019-02-17T22:30:54.267Z,29.30
2019-02-17T22:35:57.980Z,29.30
2019-02-17T22:41:00.620Z,26.13
2019-02-17T22:46:03.645Z,27.70
2019-02-17T22:51:05.876Z,25.80
2019-02-17T22:56:08.807Z,27.90
2019-02-17T23:01:16.392Z,27.47
2019-02-17T23:06:19.582Z,26.27
2019-02-17T23:11:22.296Z,25.63
2019-02-17T23:16:24.899Z,26.63
2019-02-17T23:21:27.783Z,23.77
2019-02-17T23:26:30.052Z,25.77
2019-02-17T23:31:32.300Z,27.20
2019-02-17T23:36:34.816Z,26.17
2019-02-17T23:41:37.607Z,25.03
2019-02-17T23:46:40.937Z,25.90
2019-02-17T23:51:43.193Z,25.07
2019-02-17T23:56:45.729Z,24.33
